createdAt,value
2017-05-15T00:00:51.937Z,12.32
2017-05-15T00:01:52.513Z,12.31
2017-05-15T00:02:53.088Z,12.43
2017-05-15T00:03:53.664Z,12.47
2017-05-15T00:04:54.254Z,12.36
2017-05-15T00:05:54.829Z,12.27
2017-05-15T00:06:55.404Z,12.15
2017-05-15T00:07:55.981Z,12.15
2017-05-15T00:08:56.556Z,12.21
2017-05-15T00:09:57.132Z,12.07
2017-05-15T00:10:57.708Z,12.07
2017-05-15T00:11:58.288Z,11.99
2017-05-15T00:12:58.862Z,12.04
2017-05-15T00:13:59.440Z,11.97
2017-05-15T00:15:00.032Z,11.97
2017-05-15T00:16:00.608Z,11.80
2017-05-15T00:17:01.185Z,11.75
2017-05-15T00:18:01.761Z,11.73
2017-05-15T00:19:02.336Z,11.75
2017-05-15T00:20:02.911Z,11.57
2017-05-15T00:21:03.500Z,11.45
2017-05-15T00:22:04.075Z,11.50
2017-05-15T00:23:04.652Z,11.54
2017-05-15T00:24:05.230Z,11.54
2017-05-15T00:25:05.805Z,11.66
2017-05-15T00:26:06.385Z,11.69
2017-05-15T00:27:06.961Z,11.88
2017-05-15T00:28:07.534Z,11.94
2017-05-15T00:29:08.112Z,11.90
2017-05-15T00:30:08.687Z,12.09
2017-05-15T00:31:09.263Z,11.97
2017-05-15T00:32:09.838Z,11.94
2017-05-15T00:33:10.416Z,11.90
2017-05-15T00:34:10.998Z,11.90
2017-05-15T00:35:11.584Z,11.75
2017-05-15T00:36:12.161Z,11.72
2017-05-15T00:37:12.736Z,11.95
2017-05-15T00:38:13.313Z,11.70
2017-05-15T00:39:13.891Z,11.77
2017-05-15T00:40:14.470Z,11.84
2017-05-15T00:41:15.048Z,11.90
2017-05-15T00:42:15.622Z,11.95
2017-05-15T00:43:16.198Z,11.84
2017-05-15T00:44:16.777Z,11.69
2017-05-15T00:45:17.352Z,11.52
2017-05-15T00:46:17.944Z,11.55
2017-05-15T00:47:18.521Z,11.55
2017-05-15T00:48:19.097Z,11.48
2017-05-15T00:49:19.672Z,11.41
2017-05-15T00:50:20.250Z,11.45
2017-05-15T00:51:20.826Z,11.45
2017-05-15T00:52:21.405Z,11.52
2017-05-15T00:53:21.979Z,11.52
2017-05-15T00:54:22.555Z,11.41
2017-05-15T00:55:23.133Z,11.41
2017-05-15T00:56:23.707Z,11.51
2017-05-15T00:57:24.285Z,11.60
2017-05-15T00:58:24.861Z,11.54
2017-05-15T00:59:25.440Z,11.47
2017-05-15T01:00:26.014Z,11.48
2017-05-15T01:01:26.591Z,11.51
2017-05-15T01:02:27.167Z,11.23
2017-05-15T01:03:27.741Z,11.10
2017-05-15T01:04:28.316Z,11.25
2017-05-15T01:05:28.891Z,11.14
2017-05-15T01:06:29.480Z,11.22
2017-05-15T01:07:30.057Z,11.22
2017-05-15T01:08:30.633Z,11.10
2017-05-15T01:09:31.213Z,11.02
2017-05-15T01:10:31.785Z,11.12
2017-05-15T01:11:32.363Z,11.08
2017-05-15T01:12:32.938Z,11.07
2017-05-15T01:13:33.513Z,11.18
2017-05-15T01:14:34.087Z,11.17
2017-05-15T01:15:34.663Z,11.00
2017-05-15T01:16:35.237Z,11.11
2017-05-15T01:17:35.811Z,11.04
2017-05-15T01:18:36.393Z,11.08
2017-05-15T01:19:36.979Z,10.87
2017-05-15T01:20:37.555Z,10.99
2017-05-15T01:21:38.132Z,11.07
2017-05-15T01:22:38.708Z,11.15
2017-05-15T01:23:39.284Z,11.11
2017-05-15T01:24:39.860Z,11.19
2017-05-15T01:25:40.437Z,11.02
2017-05-15T01:26:41.010Z,10.87
2017-05-15T01:27:41.587Z,10.90
2017-05-15T01:28:42.163Z,10.64
2017-05-15T01:29:42.740Z,10.59
2017-05-15T01:30:43.318Z,10.49
2017-05-15T01:31:43.894Z,10.38
2017-05-15T01:32:44.467Z,10.44
2017-05-15T01:33:45.085Z,10.57
2017-05-15T01:34:45.617Z,10.59
2017-05-15T01:35:46.193Z,10.60
2017-05-15T01:36:46.770Z,10.63
2017-05-15T01:37:47.347Z,10.67
2017-05-15T01:38:47.920Z,10.59
2017-05-15T01:39:48.509Z,10.44
2017-05-15T01:40:49.083Z,10.56
2017-05-15T01:41:49.657Z,10.57
2017-05-15T01:42:50.233Z,10.56
2017-05-15T01:43:50.807Z,10.46
2017-05-15T01:44:51.382Z,10.48
2017-05-15T01:45:51.957Z,10.53
2017-05-15T01:46:52.531Z,10.44
2017-05-15T01:47:53.107Z,10.54
2017-05-15T01:48:53.678Z,10.40
2017-05-15T01:49:54.254Z,10.40
2017-05-15T01:50:54.830Z,10.49
2017-05-15T01:51:55.407Z,10.53
2017-05-15T01:52:55.982Z,10.56
2017-05-15T01:53:56.556Z,10.56
2017-05-15T01:54:57.130Z,10.49
2017-05-15T01:55:57.705Z,10.57
2017-05-15T01:56:58.278Z,10.41
2017-05-15T01:57:58.853Z,10.34
2017-05-15T01:58:59.425Z,10.16
2017-05-15T02:00:00.004Z,10.40
2017-05-15T02:01:00.575Z,10.54
2017-05-15T02:02:01.150Z,10.49
2017-05-15T02:03:01.725Z,10.30
2017-05-15T02:04:02.299Z,10.35
2017-05-15T02:05:02.876Z,10.37
2017-05-15T02:06:03.450Z,10.23
2017-05-15T02:07:04.027Z,10.15
2017-05-15T02:08:04.612Z,10.02
2017-05-15T02:09:05.186Z,9.97
2017-05-15T02:10:05.772Z,10.05
2017-05-15T02:11:06.347Z,9.99
2017-05-15T02:12:06.923Z,9.92
2017-05-15T02:13:07.511Z,10.05
2017-05-15T02:14:08.087Z,10.02
2017-05-15T02:15:08.662Z,10.23
2017-05-15T02:16:09.238Z,10.02
2017-05-15T02:17:09.825Z,9.95
2017-05-15T02:18:10.400Z,10.01
2017-05-15T02:19:10.975Z,9.98
2017-05-15T02:20:11.548Z,10.02
2017-05-15T02:21:12.124Z,10.05
2017-05-15T02:22:12.698Z,10.02
2017-05-15T02:23:13.272Z,9.99
2017-05-15T02:24:13.859Z,10.01
2017-05-15T02:25:14.434Z,10.04
2017-05-15T02:26:15.013Z,10.07
2017-05-15T02:27:15.582Z,10.07
2017-05-15T02:28:16.156Z,10.19
2017-05-15T02:29:16.730Z,10.09
2017-05-15T02:30:17.304Z,10.02
2017-05-15T02:31:17.878Z,10.07
2017-05-15T02:32:18.454Z,10.12
2017-05-15T02:33:19.029Z,10.10
2017-05-15T02:34:19.617Z,10.17
2017-05-15T02:35:20.192Z,10.22
2017-05-15T02:36:20.766Z,9.87
2017-05-15T02:37:21.339Z,9.89
2017-05-15T02:38:21.913Z,9.94
2017-05-15T02:39:22.487Z,10.01
2017-05-15T02:40:23.060Z,9.91
2017-05-15T02:41:23.635Z,9.92
2017-05-15T02:42:24.212Z,9.72
2017-05-15T02:43:24.781Z,9.89
2017-05-15T02:44:25.367Z,9.89
2017-05-15T02:45:25.942Z,9.91
2017-05-15T02:46:26.515Z,9.87
2017-05-15T02:47:27.089Z,9.72
2017-05-15T02:48:27.661Z,9.64
2017-05-15T02:49:28.234Z,9.50
2017-05-15T02:50:28.808Z,9.40
2017-05-15T02:51:29.381Z,9.48
2017-05-15T02:52:29.953Z,9.48
2017-05-15T02:53:30.526Z,9.54
2017-05-15T02:54:31.099Z,9.74
2017-05-15T02:55:31.672Z,9.76
2017-05-15T02:56:32.244Z,9.84
2017-05-15T02:57:32.816Z,9.82
2017-05-15T02:58:33.388Z,9.76
2017-05-15T02:59:33.961Z,9.79
2017-05-15T03:00:34.534Z,9.79
2017-05-15T03:01:35.120Z,9.62
2017-05-15T03:02:35.694Z,9.66
2017-05-15T03:03:36.266Z,9.58
2017-05-15T03:04:36.840Z,9.79
2017-05-15T03:05:37.412Z,9.73
2017-05-15T03:06:37.986Z,9.77
2017-05-15T03:07:38.558Z,9.68
2017-05-15T03:08:39.144Z,9.64
2017-05-15T03:09:39.718Z,9.68
2017-05-15T03:10:40.290Z,9.59
2017-05-15T03:11:40.865Z,9.56
2017-05-15T03:12:41.438Z,9.56
2017-05-15T03:13:42.011Z,9.56
2017-05-15T03:14:42.585Z,9.51
2017-05-15T03:15:43.156Z,9.64
2017-05-15T03:16:43.729Z,9.76
2017-05-15T03:17:44.301Z,9.77
2017-05-15T03:18:44.888Z,9.62
2017-05-15T03:19:45.460Z,9.68
2017-05-15T03:20:46.034Z,9.68
2017-05-15T03:21:46.606Z,9.58
2017-05-15T03:22:47.179Z,9.72
2017-05-15T03:23:47.752Z,9.65
2017-05-15T03:24:48.325Z,9.58
2017-05-15T03:25:48.898Z,9.48
2017-05-15T03:26:49.471Z,9.56
2017-05-15T03:27:50.044Z,9.55
2017-05-15T03:28:50.616Z,9.56
2017-05-15T03:29:51.202Z,9.74
2017-05-15T03:30:51.775Z,9.83
2017-05-15T03:31:52.350Z,9.84
2017-05-15T03:32:52.924Z,9.77
2017-05-15T03:33:53.496Z,9.58
2017-05-15T03:34:54.069Z,9.48
2017-05-15T03:35:54.642Z,9.43
2017-05-15T03:36:55.217Z,9.51
2017-05-15T03:37:55.790Z,9.41
2017-05-15T03:38:56.366Z,9.41
2017-05-15T03:39:56.940Z,9.48
2017-05-15T03:40:57.516Z,9.56
2017-05-15T03:41:58.089Z,9.56
2017-05-15T03:42:58.668Z,9.48
2017-05-15T03:43:59.250Z,9.36
2017-05-15T03:44:59.830Z,9.40
2017-05-15T03:46:00.404Z,9.25
2017-05-15T03:47:00.975Z,9.34
2017-05-15T03:48:01.548Z,9.34
2017-05-15T03:49:02.121Z,9.41
2017-05-15T03:50:02.697Z,9.26
2017-05-15T03:51:03.271Z,9.31
2017-05-15T03:52:03.842Z,9.40
2017-05-15T03:53:04.417Z,9.36
2017-05-15T03:54:04.991Z,9.28
2017-05-15T03:55:05.567Z,9.29
2017-05-15T03:56:06.140Z,9.36
2017-05-15T03:57:06.714Z,9.41
2017-05-15T03:58:07.288Z,9.44
2017-05-15T03:59:07.861Z,9.56
2017-05-15T04:00:08.441Z,9.55
2017-05-15T04:01:09.009Z,9.32
2017-05-15T04:02:09.584Z,9.29
2017-05-15T04:03:10.160Z,9.34
2017-05-15T04:04:10.732Z,9.37
2017-05-15T04:05:11.308Z,9.23
2017-05-15T04:06:11.897Z,9.40
2017-05-15T04:07:12.474Z,9.36
2017-05-15T04:08:13.047Z,9.47
2017-05-15T04:09:13.622Z,9.44
2017-05-15T04:10:14.196Z,9.36
2017-05-15T04:11:14.770Z,9.40
2017-05-15T04:12:15.346Z,9.55
2017-05-15T04:13:15.935Z,9.59
2017-05-15T04:14:16.512Z,9.50
2017-05-15T04:15:17.087Z,9.62
2017-05-15T04:16:17.661Z,9.59
2017-05-15T04:17:18.235Z,9.64
2017-05-15T04:18:18.811Z,9.74
2017-05-15T04:19:19.385Z,9.74
2017-05-15T04:20:19.958Z,9.82
2017-05-15T04:21:20.535Z,9.82
2017-05-15T04:22:21.110Z,9.80
2017-05-15T04:23:21.685Z,9.89
2017-05-15T04:24:22.275Z,9.91
2017-05-15T04:25:22.851Z,9.77
2017-05-15T04:26:23.425Z,9.87
2017-05-15T04:27:24.001Z,9.91
2017-05-15T04:28:24.576Z,10.04
2017-05-15T04:29:25.153Z,10.20
2017-05-15T04:30:25.730Z,10.37
2017-05-15T04:31:26.306Z,10.44
2017-05-15T04:32:26.883Z,10.42
2017-05-15T04:33:27.460Z,10.41
2017-05-15T04:34:28.036Z,10.63
2017-05-15T04:35:28.616Z,10.64
2017-05-15T04:36:29.192Z,10.64
2017-05-15T04:37:29.768Z,10.60
2017-05-15T04:38:30.347Z,10.72
2017-05-15T04:39:30.925Z,10.74
2017-05-15T04:40:31.502Z,10.92
2017-05-15T04:41:32.078Z,10.81
2017-05-15T04:42:32.659Z,11.05
2017-05-15T04:43:33.234Z,10.97
2017-05-15T04:44:33.825Z,10.94
2017-05-15T04:45:34.401Z,11.08
2017-05-15T04:46:34.979Z,10.87
2017-05-15T04:47:35.555Z,11.04
2017-05-15T04:48:36.134Z,11.15
2017-05-15T04:49:36.712Z,11.22
2017-05-15T04:50:37.290Z,11.37
2017-05-15T04:51:37.867Z,11.37
2017-05-15T04:52:38.445Z,11.50
2017-05-15T04:53:39.021Z,11.54
2017-05-15T04:54:39.600Z,11.63
2017-05-15T04:55:40.176Z,11.70
2017-05-15T04:56:40.754Z,11.72
2017-05-15T04:57:41.334Z,11.73
2017-05-15T04:58:41.911Z,11.77
2017-05-15T04:59:42.488Z,11.91
2017-05-15T05:00:43.067Z,11.97
2017-05-15T05:01:43.643Z,12.12
2017-05-15T05:02:44.221Z,12.20
2017-05-15T05:03:44.798Z,12.28
2017-05-15T05:04:45.377Z,12.36
2017-05-15T05:05:45.955Z,12.36
2017-05-15T05:06:46.532Z,12.46
2017-05-15T05:07:47.109Z,12.57
2017-05-15T05:08:47.685Z,12.53
2017-05-15T05:09:48.265Z,12.64
2017-05-15T05:10:48.846Z,12.67
2017-05-15T05:11:49.421Z,12.67
2017-05-15T05:12:49.999Z,12.79
2017-05-15T05:13:50.577Z,12.78
2017-05-15T05:14:51.156Z,12.82
2017-05-15T05:15:51.733Z,12.85
2017-05-15T05:16:52.310Z,12.93
2017-05-15T05:17:52.890Z,12.97
2017-05-15T05:18:53.471Z,13.01
2017-05-15T05:19:54.048Z,13.16
2017-05-15T05:20:54.627Z,13.16
2017-05-15T05:21:55.206Z,13.27
2017-05-15T05:22:55.796Z,13.20
2017-05-15T05:23:56.374Z,13.27
2017-05-15T05:24:56.954Z,13.50
2017-05-15T05:25:57.532Z,13.44
2017-05-15T05:26:58.109Z,13.53
2017-05-15T05:27:58.690Z,13.46
2017-05-15T05:28:59.268Z,13.50
2017-05-15T05:29:59.847Z,13.54
2017-05-15T05:31:00.426Z,13.52
2017-05-15T05:32:01.005Z,13.59
2017-05-15T05:33:01.584Z,13.56
2017-05-15T05:34:02.163Z,13.54
2017-05-15T05:35:02.741Z,13.57
2017-05-15T05:36:03.322Z,13.67
2017-05-15T05:37:03.902Z,13.60
2017-05-15T05:38:04.481Z,13.67
2017-05-15T05:39:05.060Z,13.75
2017-05-15T05:40:05.641Z,13.77
2017-05-15T05:41:06.220Z,13.81
2017-05-15T05:42:06.813Z,13.89
2017-05-15T05:43:07.392Z,14.00
2017-05-15T05:44:07.970Z,13.96
2017-05-15T05:45:08.551Z,14.14
2017-05-15T05:46:09.130Z,14.12
2017-05-15T05:47:09.707Z,14.12
2017-05-15T05:48:10.287Z,14.14
2017-05-15T05:49:10.865Z,14.08
2017-05-15T05:50:11.447Z,14.15
2017-05-15T05:51:12.025Z,14.36
2017-05-15T05:52:12.604Z,14.30
2017-05-15T05:53:13.183Z,14.32
2017-05-15T05:54:13.764Z,14.37
2017-05-15T05:55:14.344Z,14.45
2017-05-15T05:56:14.937Z,14.33
2017-05-15T05:57:15.529Z,14.41
2017-05-15T05:58:16.109Z,14.50
2017-05-15T05:59:16.689Z,14.45
2017-05-15T06:00:17.267Z,14.37
2017-05-15T06:01:17.847Z,14.35
2017-05-15T06:02:18.428Z,14.37
2017-05-15T06:03:19.007Z,14.40
2017-05-15T06:04:19.587Z,14.50
2017-05-15T06:05:20.186Z,14.48
2017-05-15T06:06:20.760Z,14.41
2017-05-15T06:07:21.357Z,14.41
2017-05-15T06:08:21.932Z,14.47
2017-05-15T06:09:22.514Z,14.43
2017-05-15T06:10:23.094Z,14.41
2017-05-15T06:11:23.674Z,14.47
2017-05-15T06:12:24.255Z,14.37
2017-05-15T06:13:24.833Z,14.33
2017-05-15T06:14:25.413Z,14.25
2017-05-15T06:15:25.992Z,14.28
2017-05-15T06:16:26.571Z,14.44
2017-05-15T06:17:27.152Z,14.51
2017-05-15T06:18:27.743Z,14.47
2017-05-15T06:19:28.325Z,14.65
2017-05-15T06:20:28.905Z,14.63
2017-05-15T06:21:29.498Z,14.73
2017-05-15T06:22:30.076Z,14.62
2017-05-15T06:23:30.655Z,14.82
2017-05-15T06:24:31.235Z,14.84
2017-05-15T06:25:31.816Z,14.96
2017-05-15T06:26:32.397Z,14.81
2017-05-15T06:27:32.977Z,14.78
2017-05-15T06:28:33.557Z,15.06
2017-05-15T06:29:34.138Z,15.03
2017-05-15T06:30:34.721Z,14.84
2017-05-15T06:31:35.312Z,14.86
2017-05-15T06:32:35.893Z,14.97
2017-05-15T06:33:36.471Z,15.03
2017-05-15T06:34:37.053Z,15.14
2017-05-15T06:35:37.634Z,15.06
2017-05-15T06:36:38.214Z,15.06
2017-05-15T06:37:38.793Z,15.03
2017-05-15T06:38:39.375Z,14.94
2017-05-15T06:39:39.961Z,15.18
2017-05-15T06:40:40.536Z,15.10
2017-05-15T06:41:41.116Z,15.10
2017-05-15T06:42:41.697Z,15.18
2017-05-15T06:43:42.278Z,15.15
2017-05-15T06:44:42.858Z,15.04
2017-05-15T06:45:43.440Z,15.11
2017-05-15T06:46:44.030Z,15.14
2017-05-15T06:47:44.610Z,15.19
2017-05-15T06:48:45.191Z,15.27
2017-05-15T06:49:45.772Z,15.25
2017-05-15T06:50:46.352Z,15.42
2017-05-15T06:51:46.931Z,15.19
2017-05-15T06:52:47.512Z,15.18
2017-05-15T06:53:48.092Z,15.18
2017-05-15T06:54:48.673Z,15.22
2017-05-15T06:55:49.254Z,15.47
2017-05-15T06:56:49.837Z,15.46
2017-05-15T06:57:50.415Z,15.55
2017-05-15T06:58:50.995Z,15.42
2017-05-15T06:59:51.574Z,15.68
2017-05-15T07:00:52.154Z,15.94
2017-05-15T07:01:52.734Z,15.80
2017-05-15T07:02:53.323Z,15.77
2017-05-15T07:03:53.896Z,15.72
2017-05-15T07:04:54.476Z,15.65
2017-05-15T07:05:55.058Z,15.58
2017-05-15T07:06:55.638Z,15.67
2017-05-15T07:07:56.220Z,15.65
2017-05-15T07:08:56.804Z,15.76
2017-05-15T07:09:57.382Z,15.76
2017-05-15T07:10:57.964Z,15.73
2017-05-15T07:11:58.543Z,16.00
2017-05-15T07:12:59.123Z,15.88
2017-05-15T07:13:59.705Z,15.90
2017-05-15T07:15:00.286Z,16.10
2017-05-15T07:16:00.866Z,16.02
2017-05-15T07:17:01.446Z,15.92
2017-05-15T07:18:02.026Z,16.00
2017-05-15T07:19:02.608Z,15.92
2017-05-15T07:20:03.203Z,16.16
2017-05-15T07:21:03.783Z,16.01
2017-05-15T07:22:04.364Z,16.21
2017-05-15T07:23:04.943Z,16.28
2017-05-15T07:24:05.525Z,16.24
2017-05-15T07:25:06.107Z,16.32
2017-05-15T07:26:06.692Z,16.29
2017-05-15T07:27:07.282Z,16.28
2017-05-15T07:28:07.864Z,16.20
2017-05-15T07:29:08.444Z,16.17
2017-05-15T07:30:09.038Z,16.29
2017-05-15T07:31:09.633Z,16.29
2017-05-15T07:32:10.213Z,16.38
2017-05-15T07:33:10.796Z,16.50
2017-05-15T07:34:11.376Z,16.74
2017-05-15T07:35:11.958Z,16.68
2017-05-15T07:36:12.538Z,16.75
2017-05-15T07:37:13.119Z,16.86
2017-05-15T07:38:13.702Z,16.84
2017-05-15T07:39:14.283Z,17.05
2017-05-15T07:40:14.863Z,16.93
2017-05-15T07:41:15.444Z,16.69
2017-05-15T07:42:16.027Z,16.69
2017-05-15T07:43:16.609Z,16.90
2017-05-15T07:44:17.190Z,16.99
2017-05-15T07:45:17.769Z,17.27
2017-05-15T07:46:18.353Z,17.08
2017-05-15T07:47:18.937Z,17.09
2017-05-15T07:48:19.515Z,17.02
2017-05-15T07:49:20.096Z,17.02
2017-05-15T07:50:20.679Z,16.91
2017-05-15T07:51:21.261Z,17.12
2017-05-15T07:52:21.842Z,17.20
2017-05-15T07:53:22.423Z,17.06
2017-05-15T07:54:23.006Z,17.11
2017-05-15T07:55:23.588Z,16.79
2017-05-15T07:56:24.182Z,17.02
2017-05-15T07:57:24.765Z,17.22
2017-05-15T07:58:25.345Z,17.04
2017-05-15T07:59:25.925Z,17.06
2017-05-15T08:00:26.508Z,16.94
2017-05-15T08:01:27.090Z,16.96
2017-05-15T08:02:27.673Z,17.30
2017-05-15T08:03:28.253Z,17.85
2017-05-15T08:04:28.835Z,17.87
2017-05-15T08:05:29.418Z,18.15
2017-05-15T08:06:29.998Z,17.59
2017-05-15T08:07:30.579Z,17.29
2017-05-15T08:08:31.160Z,17.39
2017-05-15T08:09:31.742Z,17.42
2017-05-15T08:10:32.337Z,17.01
2017-05-15T08:11:32.918Z,17.38
2017-05-15T08:12:33.499Z,17.60
2017-05-15T08:13:34.082Z,17.57
2017-05-15T08:14:34.663Z,17.59
2017-05-15T08:15:35.245Z,17.41
2017-05-15T08:16:35.829Z,17.52
2017-05-15T08:17:36.411Z,17.14
2017-05-15T08:18:36.992Z,17.20
2017-05-15T08:19:37.575Z,17.27
2017-05-15T08:20:38.161Z,17.56
2017-05-15T08:21:38.740Z,17.64
2017-05-15T08:22:39.320Z,17.49
2017-05-15T08:23:39.902Z,17.52
2017-05-15T08:24:40.496Z,17.74
2017-05-15T08:25:41.092Z,17.52
2017-05-15T08:26:41.673Z,17.26
2017-05-15T08:27:42.256Z,17.20
2017-05-15T08:28:42.838Z,17.70
2017-05-15T08:29:43.421Z,17.82
2017-05-15T08:30:44.001Z,17.76
2017-05-15T08:31:44.587Z,17.57
2017-05-15T08:32:45.167Z,17.64
2017-05-15T08:33:45.749Z,17.97
2017-05-15T08:34:46.331Z,17.85
2017-05-15T08:35:46.914Z,17.97
2017-05-15T08:36:47.499Z,17.92
2017-05-15T08:37:48.079Z,17.87
2017-05-15T08:38:48.661Z,17.68
2017-05-15T08:39:49.247Z,17.82
2017-05-15T08:40:49.827Z,18.04
2017-05-15T08:41:50.408Z,18.05
2017-05-15T08:42:50.990Z,17.97
2017-05-15T08:43:51.584Z,18.26
2017-05-15T08:44:52.170Z,18.38
2017-05-15T08:45:52.751Z,18.26
2017-05-15T08:46:53.333Z,18.19
2017-05-15T08:47:53.914Z,18.25
2017-05-15T08:48:54.495Z,18.13
2017-05-15T08:49:55.079Z,18.16
2017-05-15T08:50:55.664Z,18.47
2017-05-15T08:51:56.261Z,18.22
2017-05-15T08:52:56.842Z,18.38
2017-05-15T08:53:57.425Z,18.45
2017-05-15T08:54:58.008Z,18.60
2017-05-15T08:55:58.591Z,18.56
2017-05-15T08:56:59.186Z,18.40
2017-05-15T08:57:59.770Z,18.40
2017-05-15T08:59:00.352Z,18.22
2017-05-15T09:00:00.933Z,18.08
2017-05-15T09:01:01.519Z,18.08
2017-05-15T09:02:02.099Z,18.35
2017-05-15T09:03:02.682Z,18.38
2017-05-15T09:04:03.263Z,18.44
2017-05-15T09:05:03.846Z,18.31
2017-05-15T09:06:04.443Z,18.50
2017-05-15T09:07:05.028Z,18.59
2017-05-15T09:08:05.609Z,18.65
2017-05-15T09:09:06.192Z,18.62
2017-05-15T09:10:06.775Z,18.84
2017-05-15T09:11:07.357Z,18.95
2017-05-15T09:12:07.939Z,18.88
2017-05-15T09:13:08.521Z,18.63
2017-05-15T09:14:09.103Z,18.62
2017-05-15T09:15:09.687Z,18.84
2017-05-15T09:16:10.284Z,19.18
2017-05-15T09:17:10.866Z,19.12
2017-05-15T09:18:11.464Z,19.04
2017-05-15T09:19:12.048Z,18.90
2017-05-15T09:20:12.631Z,18.83
2017-05-15T09:21:13.213Z,19.02
2017-05-15T09:22:13.799Z,18.81
2017-05-15T09:23:14.381Z,18.75
2017-05-15T09:24:14.964Z,18.53
2017-05-15T09:25:15.549Z,18.68
2017-05-15T09:26:16.132Z,18.78
2017-05-15T09:27:16.728Z,19.16
2017-05-15T09:28:17.312Z,19.24
2017-05-15T09:29:17.894Z,19.49
2017-05-15T09:30:18.490Z,19.09
2017-05-15T09:31:19.072Z,19.11
2017-05-15T09:32:19.655Z,18.99
2017-05-15T09:33:20.240Z,18.95
2017-05-15T09:34:20.822Z,19.30
2017-05-15T09:35:21.406Z,19.37
2017-05-15T09:36:21.990Z,19.47
2017-05-15T09:37:22.585Z,19.19
2017-05-15T09:38:23.169Z,19.33
2017-05-15T09:39:23.751Z,19.18
2017-05-15T09:40:24.335Z,19.09
2017-05-15T09:41:24.918Z,18.89
2017-05-15T09:42:25.501Z,18.92
2017-05-15T09:43:26.086Z,19.08
2017-05-15T09:44:26.683Z,19.30
2017-05-15T09:45:27.267Z,19.26
2017-05-15T09:46:27.850Z,18.70
2017-05-15T09:47:28.447Z,18.92
2017-05-15T09:48:29.043Z,19.29
2017-05-15T09:49:29.640Z,18.60
2017-05-15T09:50:30.222Z,18.59
2017-05-15T09:51:30.804Z,18.81
2017-05-15T09:52:31.388Z,18.49
2017-05-15T09:53:31.973Z,18.34
2017-05-15T09:54:32.570Z,18.45
2017-05-15T09:55:33.157Z,18.74
2017-05-15T09:56:33.737Z,18.92
2017-05-15T09:57:34.322Z,19.30
2017-05-15T09:58:34.905Z,19.47
2017-05-15T09:59:35.490Z,19.48
2017-05-15T10:00:36.074Z,19.41
2017-05-15T10:01:36.658Z,19.40
2017-05-15T10:02:37.240Z,19.24
2017-05-15T10:03:37.824Z,19.24
2017-05-15T10:04:38.407Z,18.90
2017-05-15T10:05:39.003Z,19.37
2017-05-15T10:06:39.586Z,19.94
2017-05-15T10:07:40.171Z,19.96
2017-05-15T10:08:40.755Z,19.99
2017-05-15T10:09:41.339Z,19.82
2017-05-15T10:10:41.924Z,19.56
2017-05-15T10:11:42.506Z,19.91
2017-05-15T10:12:43.090Z,20.55
2017-05-15T10:13:43.673Z,20.48
2017-05-15T10:14:44.256Z,20.56
2017-05-15T10:15:44.844Z,20.34
2017-05-15T10:16:45.427Z,20.65
2017-05-15T10:17:46.012Z,20.40
2017-05-15T10:18:46.597Z,20.00
2017-05-15T10:19:47.181Z,19.52
2017-05-15T10:20:47.766Z,19.58
2017-05-15T10:21:48.351Z,19.70
2017-05-15T10:22:48.935Z,19.59
2017-05-15T10:23:49.520Z,19.62
2017-05-15T10:24:50.106Z,19.49
2017-05-15T10:25:50.691Z,20.09
2017-05-15T10:26:51.278Z,20.60
2017-05-15T10:27:51.860Z,20.90
2017-05-15T10:28:52.444Z,21.20
2017-05-15T10:29:53.029Z,21.45
2017-05-15T10:30:53.629Z,21.57
2017-05-15T10:31:54.212Z,20.82
2017-05-15T10:32:54.797Z,20.99
2017-05-15T10:33:55.382Z,20.37
2017-05-15T10:34:55.968Z,20.78
2017-05-15T10:35:56.551Z,20.58
2017-05-15T10:36:57.137Z,20.81
2017-05-15T10:37:57.734Z,20.43
2017-05-15T10:38:58.321Z,19.96
2017-05-15T10:39:58.906Z,20.13
2017-05-15T10:40:59.490Z,20.40
2017-05-15T10:42:00.077Z,20.66
2017-05-15T10:43:00.663Z,20.10
2017-05-15T10:44:01.249Z,20.00
2017-05-15T10:45:01.831Z,20.34
2017-05-15T10:46:02.417Z,20.18
2017-05-15T10:47:02.999Z,20.32
2017-05-15T10:48:03.583Z,20.26
2017-05-15T10:49:04.169Z,20.59
2017-05-15T10:50:04.756Z,20.28
2017-05-15T10:51:05.336Z,20.41
2017-05-15T10:52:05.920Z,20.67
2017-05-15T10:53:06.506Z,20.78
2017-05-15T10:54:07.102Z,21.22
2017-05-15T10:55:07.689Z,21.62
2017-05-15T10:56:08.273Z,21.85
2017-05-15T10:57:08.857Z,22.08
2017-05-15T10:58:09.444Z,22.17
2017-05-15T10:59:10.028Z,21.98
2017-05-15T11:00:10.616Z,22.04
2017-05-15T11:01:11.199Z,22.22
2017-05-15T11:02:11.791Z,22.08
2017-05-15T11:03:12.371Z,22.15
2017-05-15T11:04:12.957Z,21.80
2017-05-15T11:05:13.543Z,22.04
2017-05-15T11:06:14.133Z,22.23
2017-05-15T11:07:14.728Z,22.28
2017-05-15T11:08:15.314Z,22.75
2017-05-15T11:09:15.899Z,22.69
2017-05-15T11:10:16.486Z,22.60
2017-05-15T11:11:17.071Z,21.77
2017-05-15T11:12:17.656Z,21.30
2017-05-15T11:13:18.242Z,21.03
2017-05-15T11:14:18.828Z,20.92
2017-05-15T11:15:19.413Z,21.03
2017-05-15T11:16:20.011Z,21.99
2017-05-15T11:17:20.597Z,22.48
2017-05-15T11:18:21.183Z,22.62
2017-05-15T11:19:21.770Z,22.57
2017-05-15T11:20:22.369Z,22.63
2017-05-15T11:21:22.954Z,22.36
2017-05-15T11:22:23.541Z,22.54
2017-05-15T11:23:24.139Z,22.55
2017-05-15T11:24:24.726Z,21.72
2017-05-15T11:25:25.311Z,21.33
2017-05-15T11:26:25.897Z,21.35
2017-05-15T11:27:26.483Z,21.22
2017-05-15T11:28:27.070Z,21.52
2017-05-15T11:29:27.654Z,21.52
2017-05-15T11:30:28.253Z,21.72
2017-05-15T11:31:28.839Z,21.64
2017-05-15T11:32:29.437Z,21.33
2017-05-15T11:33:30.022Z,20.99
2017-05-15T11:34:30.610Z,21.21
2017-05-15T11:35:31.194Z,21.69
2017-05-15T11:36:31.780Z,21.03
2017-05-15T11:37:32.373Z,20.67
2017-05-15T11:38:32.958Z,21.05
2017-05-15T11:39:33.555Z,21.32
2017-05-15T11:40:34.142Z,21.39
2017-05-15T11:41:34.728Z,21.33
2017-05-15T11:42:35.314Z,21.48
2017-05-15T11:43:35.900Z,21.29
2017-05-15T11:44:36.488Z,21.29
2017-05-15T11:45:37.070Z,21.72
2017-05-15T11:46:37.657Z,21.45
2017-05-15T11:47:38.242Z,21.40
2017-05-15T11:48:38.829Z,21.54
2017-05-15T11:49:39.418Z,21.06
2017-05-15T11:50:40.001Z,21.30
2017-05-15T11:51:40.587Z,20.92
2017-05-15T11:52:41.174Z,21.05
2017-05-15T11:53:41.759Z,21.00
2017-05-15T11:54:42.343Z,20.50
2017-05-15T11:55:42.930Z,20.52
2017-05-15T11:56:43.516Z,21.00
2017-05-15T11:57:44.100Z,21.06
2017-05-15T11:58:44.688Z,21.46
2017-05-15T11:59:45.287Z,21.50
2017-05-15T12:00:45.881Z,22.06
2017-05-15T12:01:46.467Z,22.14
2017-05-15T12:02:47.054Z,22.45
2017-05-15T12:03:47.639Z,22.81
2017-05-15T12:04:48.226Z,23.09
2017-05-15T12:05:48.813Z,22.60
2017-05-15T12:06:49.397Z,21.72
2017-05-15T12:07:49.982Z,21.60
2017-05-15T12:08:50.569Z,21.62
2017-05-15T12:09:51.156Z,21.70
2017-05-15T12:10:51.779Z,21.52
2017-05-15T12:11:52.365Z,21.25
2017-05-15T12:12:52.951Z,21.48
2017-05-15T12:13:53.537Z,21.46
2017-05-15T12:14:54.122Z,22.02
2017-05-15T12:15:54.708Z,21.69
2017-05-15T12:16:55.296Z,22.54
2017-05-15T12:17:55.880Z,23.00
2017-05-15T12:18:56.467Z,23.06
2017-05-15T12:19:57.053Z,23.21
2017-05-15T12:20:57.638Z,23.00
2017-05-15T12:21:58.223Z,22.81
2017-05-15T12:22:58.810Z,22.68
2017-05-15T12:23:59.396Z,22.83
2017-05-15T12:24:59.980Z,23.05
2017-05-15T12:26:00.567Z,22.84
2017-05-15T12:27:01.153Z,22.85
2017-05-15T12:28:01.739Z,22.65
2017-05-15T12:29:02.323Z,22.20
2017-05-15T12:30:02.910Z,21.76
2017-05-15T12:31:03.496Z,21.58
2017-05-15T12:32:04.081Z,21.21
2017-05-15T12:33:04.669Z,21.55
2017-05-15T12:34:05.269Z,21.89
2017-05-15T12:35:05.865Z,21.98
2017-05-15T12:36:06.451Z,22.18
2017-05-15T12:37:07.036Z,22.06
2017-05-15T12:38:07.621Z,21.67
2017-05-15T12:39:08.206Z,21.70
2017-05-15T12:40:08.793Z,21.50
2017-05-15T12:41:09.379Z,21.93
2017-05-15T12:42:09.964Z,22.54
2017-05-15T12:43:10.550Z,23.27
2017-05-15T12:44:11.137Z,23.48
2017-05-15T12:45:11.723Z,22.87
2017-05-15T12:46:12.308Z,22.91
2017-05-15T12:47:12.895Z,22.81
2017-05-15T12:48:13.482Z,22.81
2017-05-15T12:49:14.067Z,22.45
2017-05-15T12:50:14.655Z,21.51
2017-05-15T12:51:15.240Z,22.00
2017-05-15T12:52:15.824Z,21.82
2017-05-15T12:53:16.611Z,21.72
2017-05-15T12:54:17.196Z,21.62
2017-05-15T12:55:17.782Z,21.43
2017-05-15T12:56:18.369Z,21.76
2017-05-15T12:57:18.955Z,21.85
2017-05-15T12:58:19.559Z,21.91
2017-05-15T12:59:20.139Z,21.75
2017-05-15T13:00:20.739Z,21.80
2017-05-15T13:01:21.324Z,22.11
2017-05-15T13:02:21.911Z,22.48
2017-05-15T13:03:22.495Z,22.50
2017-05-15T13:04:23.082Z,22.23